Alto Rio Doce, Brazil
Current Conditions -  °F | °C
As of 3:00 PM on Saturday 25 Oct 2014 (Local Time) from SBBQ Reporting Station
Overcast Overcast  
Wind Chill: 70°   Ceiling: 7000
Heat Index: 70°   Visibility: 6mi
Dew Point: 57°   Wind: 6mph
Humidity: 64%   Direction: 190°S
Pressure: 30.12"   Gusts: NA
Location:  21.03°S, 43.41°W
Report Text: SBBQ 251700Z 19005KT 9999 FEW049 OVC070 21/14 Q1020
Loading
Personal Weather Stations






























Interactive Weather Map
Tropical Storm Tracking
New forecast layout! Learn more

10-Day Weather Forecast

Advertisements
Track Severe Weather on mobile